Time;durP1;ratioP1;P1;durP2;ratioP2;P2;SDS_P1;SDS_P2;PMS_P1;PMS_P2;Temp;Humidity;BMP_temperature;BMP_pressure;BME280_temperature;BME280_humidity;BME280_pressure;Samples;Min_cycle;Max_cycle;Signal;HPM_P1;HPM_P2
2023/11/07 00:02:19;;;;;;;8.52;3.25;;;8.20;99.90;;;;;;5007798;28;20060;-66
2023/11/07 00:04:45;;;;;;;4.13;3.00;;;8.20;99.90;;;;;;5008068;28;20042;-66
2023/11/07 00:07:11;;;;;;;9.57;3.15;;;8.10;99.90;;;;;;5007235;28;20492;-66
2023/11/07 00:09:37;;;;;;;6.70;2.92;;;8.00;99.90;;;;;;5006366;28;20057;-66
2023/11/07 00:12:05;;;;;;;8.43;2.72;;;8.10;99.90;;;;;;5001044;28;20128;-66
2023/11/07 00:14:31;;;;;;;4.93;2.00;;;8.10;99.90;;;;;;5007514;28;20038;-66
2023/11/07 00:16:57;;;;;;;10.68;2.90;;;8.00;99.90;;;;;;5007461;28;20054;-66
2023/11/07 00:19:24;;;;;;;13.38;2.65;;;8.00;99.90;;;;;;5006448;28;20061;-66
2023/11/07 00:21:50;;;;;;;8.95;3.08;;;8.00;99.90;;;;;;5004301;28;20301;-66
2023/11/07 00:24:15;;;;;;;4.57;2.47;;;8.10;99.90;;;;;;5006978;28;20042;-66
2023/11/07 00:26:41;;;;;;;8.07;3.15;;;8.10;99.90;;;;;;5007383;28;20042;-66
2023/11/07 00:29:07;;;;;;;10.48;2.70;;;8.00;99.90;;;;;;5006991;28;20077;-66
2023/11/07 00:31:33;;;;;;;5.03;2.50;;;8.20;99.90;;;;;;5004868;28;20459;-66
2023/11/07 00:34:00;;;;;;;8.40;2.92;;;8.20;99.90;;;;;;5003000;28;20049;-66
2023/11/07 00:36:26;;;;;;;14.48;3.30;;;8.30;99.90;;;;;;5006194;28;20088;-66
2023/11/07 00:38:52;;;;;;;3.03;2.08;;;8.30;99.90;;;;;;5007725;28;20037;-66
2023/11/07 00:41:19;;;;;;;10.20;2.92;;;8.30;99.90;;;;;;5007183;28;20045;-66
2023/11/07 00:43:48;;;;;;;8.93;2.42;;;8.30;99.90;;;;;;5006195;28;20050;-66
2023/11/07 00:46:13;;;;;;;5.63;2.70;;;8.30;99.90;;;;;;5000080;28;20101;-66
2023/11/07 00:48:39;;;;;;;7.15;2.25;;;8.20;99.90;;;;;;5005582;28;20065;-66
2023/11/07 00:51:05;;;;;;;7.90;2.38;;;8.20;99.90;;;;;;5005479;28;20558;-66
2023/11/07 00:53:31;;;;;;;6.70;2.78;;;8.20;99.90;;;;;;5005133;28;20041;-66
2023/11/07 00:55:56;;;;;;;6.43;2.50;;;8.10;99.90;;;;;;4999966;28;20053;-66
2023/11/07 00:58:22;;;;;;;4.47;2.22;;;8.10;99.90;;;;;;5006330;28;20041;-66
2023/11/07 01:00:48;;;;;;;10.13;2.53;;;8.10;99.90;;;;;;5006287;28;20045;-66
2023/11/07 01:03:14;;;;;;;4.35;2.75;;;8.00;99.90;;;;;;5004132;28;20049;-66
2023/11/07 01:05:40;;;;;;;9.05;3.22;;;7.90;99.90;;;;;;4995127;28;20072;-66
2023/11/07 01:08:06;;;;;;;5.38;2.33;;;7.90;99.90;;;;;;5003321;28;20097;-66
2023/11/07 01:10:35;;;;;;;3.78;1.45;;;7.90;99.90;;;;;;5004899;28;20050;-67
2023/11/07 01:13:00;;;;;;;6.43;2.00;;;7.90;99.90;;;;;;5005091;28;20045;-66
2023/11/07 01:15:26;;;;;;;2.45;2.22;;;7.80;99.90;;;;;;5002311;28;20396;-66
2023/11/07 01:17:52;;;;;;;5.65;2.72;;;7.80;99.90;;;;;;5005285;28;20133;-66
2023/11/07 01:20:18;;;;;;;2.88;1.90;;;7.80;99.90;;;;;;5005289;28;20046;-66
2023/11/07 01:22:48;;;;;;;4.70;2.50;;;7.80;99.90;;;;;;5006876;28;20081;-66
2023/11/07 01:25:14;;;;;;;;;;;7.80;99.90;;;;;;5004827;28;20110;-66
2023/11/07 01:27:39;;;;;;;6.82;2.97;;;7.80;99.90;;;;;;5006626;28;20418;-66
2023/11/07 01:30:07;;;;;;;6.20;2.50;;;7.80;99.90;;;;;;5006075;28;20046;-66
2023/11/07 01:32:32;;;;;;;6.47;3.10;;;7.70;99.90;;;;;;5005677;28;20124;-66
2023/11/07 01:34:58;;;;;;;5.30;3.38;;;7.80;99.90;;;;;;5004479;28;20447;-66
2023/11/07 01:37:24;;;;;;;7.30;2.80;;;7.80;99.90;;;;;;5006637;28;20811;-66
2023/11/07 01:39:50;;;;;;;6.30;2.92;;;7.80;99.90;;;;;;4999170;28;20484;-66
2023/11/07 01:42:16;;;;;;;8.50;3.70;;;7.80;99.90;;;;;;5004001;28;20056;-66
2023/11/07 01:44:49;;;;;;;6.50;3.40;;;7.80;99.90;;;;;;5006832;28;20114;-66
2023/11/07 01:47:16;;;;;;;6.05;3.58;;;7.80;99.90;;;;;;5005322;28;20444;-66
2023/11/07 01:49:42;;;;;;;11.85;3.80;;;7.80;99.90;;;;;;5005434;28;20062;-66
2023/11/07 01:52:08;;;;;;;7.95;3.40;;;7.80;99.90;;;;;;5004859;28;20512;-66
2023/11/07 01:54:35;;;;;;;7.18;3.70;;;7.90;99.90;;;;;;5005725;28;20129;-66
2023/11/07 01:57:02;;;;;;;9.15;3.47;;;7.90;99.90;;;;;;5004335;28;20054;-66
2023/11/07 01:59:28;;;;;;;13.25;4.07;;;7.90;99.90;;;;;;5008379;28;20626;-66
2023/11/07 02:01:58;;;;;;;9.35;4.22;;;8.00;99.90;;;;;;5009081;28;20066;-66
2023/11/07 02:04:24;;;;;;;6.30;3.65;;;8.00;99.90;;;;;;5008039;28;20046;-66
2023/11/07 02:06:50;;;;;;;12.52;4.50;;;8.10;99.90;;;;;;5007969;28;20108;-66
2023/11/07 02:09:16;;;;;;;12.18;5.38;;;8.10;99.90;;;;;;5008081;28;20046;-66
2023/11/07 02:11:43;;;;;;;12.63;4.95;;;8.20;99.90;;;;;;4998620;28;20069;-66
2023/11/07 02:14:25;;;;;;;10.63;4.70;;;8.20;99.90;;;;;;5008130;28;20062;-66
2023/11/07 02:16:51;;;;;;;10.43;4.70;;;8.20;99.90;;;;;;5009080;28;20109;-66
2023/11/07 02:19:16;;;;;;;11.13;5.35;;;8.20;99.90;;;;;;4991355;28;20137;-66
2023/11/07 02:21:45;;;;;;;13.90;5.25;;;8.20;99.90;;;;;;5009721;28;20053;-66
2023/11/07 02:24:11;;;;;;;9.27;4.40;;;8.10;99.90;;;;;;5007720;28;20373;-66
2023/11/07 02:26:36;;;;;;;13.20;5.60;;;8.20;99.90;;;;;;4991912;28;20041;-66
2023/11/07 02:29:02;;;;;;;14.05;5.97;;;8.20;99.90;;;;;;5007632;28;20042;-66
2023/11/07 02:31:28;;;;;;;10.90;5.50;;;8.20;99.90;;;;;;5007578;28;20048;-66
2023/11/07 02:33:53;;;;;;;14.07;5.30;;;8.30;99.90;;;;;;5008153;28;20042;-66
2023/11/07 02:36:19;;;;;;;5.85;4.10;;;8.30;99.90;;;;;;5008675;28;20060;-66
2023/11/07 02:38:45;;;;;;;10.45;5.72;;;8.40;99.90;;;;;;5008578;28;20120;-66
2023/11/07 02:41:11;;;;;;;13.02;5.90;;;8.40;99.90;;;;;;5009290;28;20192;-66
2023/11/07 02:43:37;;;;;;;13.68;5.88;;;8.40;99.90;;;;;;5009466;28;20041;-66
2023/11/07 02:46:02;;;;;;;10.43;5.75;;;8.50;99.90;;;;;;4991664;28;20448;-66
2023/11/07 02:48:28;;;;;;;8.20;4.97;;;8.40;99.90;;;;;;5007628;28;20048;-66
2023/11/07 02:50:55;;;;;;;18.60;6.15;;;8.50;99.90;;;;;;5007895;28;20073;-66
2023/11/07 02:53:21;;;;;;;14.00;5.53;;;8.50;99.90;;;;;;5008476;28;20463;-66
2023/11/07 02:55:47;;;;;;;11.00;5.97;;;8.60;99.90;;;;;;5008751;28;20140;-65
2023/11/07 02:58:13;;;;;;;18.02;5.15;;;8.70;99.90;;;;;;5008426;28;20041;-66
2023/11/07 03:00:39;;;;;;;17.13;5.57;;;8.70;99.90;;;;;;5008668;28;20050;-66
2023/11/07 03:03:05;;;;;;;14.85;4.57;;;8.70;99.90;;;;;;5007645;28;20053;-66
2023/11/07 03:05:31;;;;;;;15.52;4.78;;;8.70;99.90;;;;;;5008501;28;20034;-65
2023/11/07 03:08:01;;;;;;;8.65;4.55;;;8.70;99.90;;;;;;5009041;28;20075;-65
2023/11/07 03:10:27;;;;;;;;;;;8.60;99.90;;;;;;5005722;28;20050;-65
2023/11/07 03:12:52;;;;;;;10.48;4.45;;;8.70;99.90;;;;;;5008761;28;20375;-65
2023/11/07 03:15:18;;;;;;;20.27;5.35;;;8.70;99.90;;;;;;5008426;28;20119;-65
2023/11/07 03:17:44;;;;;;;11.73;4.05;;;8.70;99.90;;;;;;5008469;28;20155;-65
2023/11/07 03:20:10;;;;;;;7.35;3.55;;;8.70;99.90;;;;;;5001519;28;20492;-65
2023/11/07 03:22:36;;;;;;;9.73;4.43;;;8.70;99.90;;;;;;5003177;28;20134;-65
2023/11/07 03:25:02;;;;;;;7.32;3.42;;;8.60;99.90;;;;;;4990910;28;20551;-65
2023/11/07 03:27:28;;;;;;;7.93;4.05;;;8.70;99.90;;;;;;5008363;28;20045;-65
2023/11/07 03:29:54;;;;;;;7.28;3.55;;;8.60;99.90;;;;;;5007767;28;20030;-65
2023/11/07 03:32:19;;;;;;;10.70;4.55;;;8.60;99.90;;;;;;5006273;28;20136;-65
2023/11/07 03:34:45;;;;;;;11.48;4.20;;;8.60;99.90;;;;;;4990562;28;20046;-65
2023/11/07 03:37:11;;;;;;;5.43;3.67;;;8.70;99.90;;;;;;4990461;28;20121;-65
2023/11/07 03:39:36;;;;;;;11.85;4.25;;;8.70;99.90;;;;;;5006180;28;20050;-65
2023/11/07 03:42:04;;;;;;;7.57;3.22;;;8.60;99.90;;;;;;5006704;28;20045;-65
2023/11/07 03:44:30;;;;;;;13.45;4.03;;;8.60;99.90;;;;;;5006573;28;20042;-65
2023/11/07 03:46:56;;;;;;;10.45;4.13;;;8.60;99.90;;;;;;5008388;28;20048;-65
2023/11/07 03:49:21;;;;;;;9.73;3.47;;;8.70;99.90;;;;;;5007488;28;20072;-65
2023/11/07 03:51:48;;;;;;;10.90;3.47;;;8.60;99.90;;;;;;5005726;28;20117;-65
2023/11/07 03:54:14;;;;;;;16.48;3.83;;;8.60;99.90;;;;;;5008107;28;20144;-66
2023/11/07 03:56:40;;;;;;;15.00;5.00;;;8.50;99.90;;;;;;5005893;28;20486;-65
2023/11/07 03:59:06;;;;;;;8.63;4.03;;;8.60;99.90;;;;;;5012685;28;20029;-65
2023/11/07 04:01:39;;;;;;;6.95;3.35;;;8.40;99.90;;;;;;5029594;28;20140;-65
2023/11/07 04:04:06;;;;;;;10.70;3.97;;;8.50;99.90;;;;;;5006752;28;20527;-65
2023/11/07 04:06:32;;;;;;;7.35;3.72;;;8.50;99.90;;;;;;5009513;28;20084;-65
2023/11/07 04:08:58;;;;;;;11.77;3.40;;;8.40;99.90;;;;;;5006158;28;20092;-65
2023/11/07 04:11:24;;;;;;;8.10;3.42;;;8.50;99.90;;;;;;5007317;28;20534;-65
2023/11/07 04:13:51;;;;;;;12.80;3.92;;;8.50;99.90;;;;;;5006249;28;20065;-65
2023/11/07 04:16:20;;;;;;;12.65;3.83;;;8.40;99.90;;;;;;4989866;28;20073;-65
2023/11/07 04:18:46;;;;;;;7.10;3.33;;;8.40;99.90;;;;;;5007332;28;20072;-65
2023/11/07 04:21:12;;;;;;;11.90;4.00;;;8.40;99.90;;;;;;5007352;28;20050;-65
2023/11/07 04:23:39;;;;;;;8.98;3.13;;;8.30;99.90;;;;;;5006259;28;20082;-65
2023/11/07 04:26:07;;;;;;;11.15;3.88;;;8.30;99.90;;;;;;5007219;28;20064;-65
2023/11/07 04:28:33;;;;;;;15.20;3.40;;;8.30;99.90;;;;;;5005863;28;20116;-65
2023/11/07 04:30:59;;;;;;;5.47;3.33;;;8.30;99.90;;;;;;5007393;28;20046;-65
2023/11/07 04:33:26;;;;;;;9.70;3.03;;;8.30;99.90;;;;;;5006435;28;20052;-65
2023/11/07 04:35:52;;;;;;;8.77;2.67;;;8.30;99.90;;;;;;5005140;28;20057;-65
2023/11/07 04:38:19;;;;;;;8.15;2.70;;;8.30;99.90;;;;;;5007194;28;20077;-65
2023/11/07 04:40:45;;;;;;;8.10;3.28;;;8.40;99.90;;;;;;5007050;28;20102;-65
2023/11/07 04:43:11;;;;;;;12.55;2.90;;;8.40;99.90;;;;;;5005764;28;20049;-65
2023/11/07 04:45:37;;;;;;;11.38;3.03;;;8.30;99.90;;;;;;5007136;28;20089;-66
2023/11/07 04:48:03;;;;;;;11.02;3.40;;;8.30;99.90;;;;;;5006368;28;20130;-65
2023/11/07 04:50:33;;;;;;;5.93;2.88;;;8.20;99.90;;;;;;5006621;28;20045;-65
2023/11/07 04:52:58;;;;;;;6.70;3.00;;;8.30;99.90;;;;;;5007181;28;20054;-65
2023/11/07 04:55:24;;;;;;;13.15;3.47;;;8.30;99.90;;;;;;5007475;28;20476;-65
2023/11/07 04:57:50;;;;;;;10.80;3.20;;;8.30;99.90;;;;;;5010709;28;20125;-65
2023/11/07 05:00:16;;;;;;;5.95;3.33;;;8.20;99.90;;;;;;5010702;28;20563;-66
2023/11/07 05:02:42;;;;;;;8.40;3.08;;;8.20;99.90;;;;;;4998864;28;20058;-66
2023/11/07 05:05:09;;;;;;;7.20;3.13;;;8.30;99.90;;;;;;5001541;28;20046;-65
2023/11/07 05:07:35;;;;;;;6.82;3.30;;;8.30;99.90;;;;;;5006256;28;20119;-65
2023/11/07 05:10:03;;;;;;;7.40;3.03;;;8.30;99.90;;;;;;5007062;28;20100;-65
2023/11/07 05:12:30;;;;;;;13.75;3.40;;;8.30;99.90;;;;;;5005436;28;20089;-65
2023/11/07 05:14:57;;;;;;;7.68;3.15;;;8.30;99.90;;;;;;5005087;28;20610;-65
2023/11/07 05:17:22;;;;;;;11.88;3.10;;;8.30;99.90;;;;;;4998351;28;20408;-65
2023/11/07 05:19:48;;;;;;;5.90;2.85;;;8.30;99.90;;;;;;5006088;28;20041;-65
2023/11/07 05:22:14;;;;;;;9.85;3.17;;;8.20;99.90;;;;;;5005336;28;20152;-65
2023/11/07 05:24:40;;;;;;;6.45;2.95;;;8.30;99.90;;;;;;5006372;28;20042;-65
2023/11/07 05:27:06;;;;;;;8.82;3.22;;;8.20;99.90;;;;;;5006800;28;20037;-65
2023/11/07 05:29:31;;;;;;;9.18;3.17;;;8.30;99.90;;;;;;5007176;28;20046;-65
2023/11/07 05:31:58;;;;;;;6.07;3.33;;;8.10;99.90;;;;;;5005876;28;20668;-65
2023/11/07 05:34:24;;;;;;;10.77;3.08;;;8.10;99.90;;;;;;5009530;28;20567;-65
2023/11/07 05:36:51;;;;;;;9.45;3.25;;;8.10;99.90;;;;;;4992171;28;20045;-65
2023/11/07 05:39:17;;;;;;;12.73;3.15;;;8.10;99.90;;;;;;5009855;28;20103;-65
2023/11/07 05:41:43;;;;;;;10.57;3.13;;;8.00;99.90;;;;;;5008289;28;20415;-65
2023/11/07 05:44:08;;;;;;;8.23;3.22;;;8.10;99.90;;;;;;5010536;28;20037;-65
2023/11/07 05:46:34;;;;;;;6.65;2.88;;;8.00;99.90;;;;;;5009602;28;20061;-65
2023/11/07 05:49:01;;;;;;;8.55;3.03;;;8.00;99.90;;;;;;5009691;28;20081;-65
2023/11/07 05:51:27;;;;;;;5.68;2.50;;;8.00;99.90;;;;;;5010298;28;20531;-65
2023/11/07 05:53:53;;;;;;;11.82;3.35;;;7.90;99.90;;;;;;5009931;28;20172;-65
2023/11/07 05:56:19;;;;;;;4.65;3.00;;;8.00;99.90;;;;;;5010299;28;20069;-65
2023/11/07 05:58:46;;;;;;;5.47;2.70;;;8.00;99.90;;;;;;5009712;28;20448;-65
2023/11/07 06:01:12;;;;;;;7.55;2.95;;;7.90;99.90;;;;;;4992891;28;20455;-65
2023/11/07 06:03:39;;;;;;;9.45;3.08;;;7.90;99.90;;;;;;4998895;28;20050;-65
2023/11/07 06:06:05;;;;;;;10.52;2.72;;;8.00;99.90;;;;;;5005868;28;20088;-65
2023/11/07 06:08:31;;;;;;;6.32;2.70;;;8.00;99.90;;;;;;5024892;28;20044;-65
2023/11/07 06:10:57;;;;;;;8.55;2.88;;;8.00;99.90;;;;;;5008373;28;20132;-65
2023/11/07 06:13:22;;;;;;;10.20;2.70;;;8.00;99.90;;;;;;5008698;28;20156;-65
2023/11/07 06:15:48;;;;;;;7.78;2.40;;;8.00;99.90;;;;;;5008085;28;20041;-65
2023/11/07 06:18:14;;;;;;;5.70;2.22;;;8.00;99.90;;;;;;5005553;28;20030;-65
2023/11/07 06:20:41;;;;;;;9.52;2.28;;;8.00;99.90;;;;;;5001556;28;20563;-65
2023/11/07 06:23:08;;;;;;;8.02;2.60;;;8.00;99.90;;;;;;5009647;28;20042;-65
2023/11/07 06:25:34;;;;;;;8.75;2.90;;;8.00;99.90;;;;;;5009740;28;20054;-65
2023/11/07 06:28:00;;;;;;;8.45;3.00;;;8.00;99.90;;;;;;5007868;28;20049;-65
2023/11/07 06:30:29;;;;;;;10.70;2.53;;;8.00;99.90;;;;;;5009814;28;20038;-65
2023/11/07 06:32:56;;;;;;;7.88;2.45;;;8.10;99.90;;;;;;5008889;28;20045;-65
2023/11/07 06:35:22;;;;;;;4.53;2.65;;;8.10;99.90;;;;;;5009062;28;20332;-66
2023/11/07 06:37:48;;;;;;;9.07;2.50;;;8.10;99.90;;;;;;5008694;28;20050;-65
2023/11/07 06:40:16;;;;;;;4.20;2.20;;;8.10;99.90;;;;;;5009466;28;20092;-65
2023/11/07 06:42:44;;;;;;;6.03;2.60;;;8.20;99.90;;;;;;5008096;28;20061;-65
2023/11/07 06:45:12;;;;;;;9.20;2.92;;;8.20;99.90;;;;;;5009037;28;20125;-65
2023/11/07 06:47:42;;;;;;;7.13;2.67;;;8.20;99.90;;;;;;5009070;28;20124;-65
2023/11/07 06:50:08;;;;;;;;;;;8.30;99.90;;;;;;5004028;28;20484;-65
2023/11/07 06:52:36;;;;;;;6.90;2.53;;;8.20;99.90;;;;;;4998688;28;19933;-65
2023/11/07 06:55:02;;;;;;;5.32;2.67;;;8.20;99.90;;;;;;5007424;28;20046;-65
2023/11/07 06:57:27;;;;;;;6.28;2.58;;;8.30;99.90;;;;;;5007621;28;20045;-65
2023/11/07 06:59:53;;;;;;;10.32;2.47;;;8.20;99.90;;;;;;5007308;28;20056;-66
2023/11/07 07:02:19;;;;;;;3.60;2.38;;;8.20;99.90;;;;;;5008633;28;20134;-66
2023/11/07 07:04:45;;;;;;;9.40;2.55;;;8.20;99.90;;;;;;5006181;28;20109;-65
2023/11/07 07:07:12;;;;;;;6.68;2.35;;;8.20;99.90;;;;;;4994215;28;20470;-65
2023/11/07 07:09:39;;;;;;;7.80;2.72;;;8.20;99.90;;;;;;5008858;28;20073;-65
2023/11/07 07:12:05;;;;;;;8.73;2.50;;;8.20;99.90;;;;;;5008567;28;20058;-65
2023/11/07 07:14:31;;;;;;;4.70;2.30;;;8.10;99.90;;;;;;5004408;28;20370;-65
2023/11/07 07:16:57;;;;;;;7.43;2.72;;;8.20;99.90;;;;;;5002522;28;20056;-66
2023/11/07 07:19:23;;;;;;;8.20;2.28;;;8.20;99.90;;;;;;5008267;28;20045;-65
2023/11/07 07:21:52;;;;;;;2.63;2.35;;;8.20;99.90;;;;;;5008012;28;20042;-65
2023/11/07 07:24:21;;;;;;;7.67;2.60;;;8.20;99.90;;;;;;5008421;28;20503;-65
2023/11/07 07:26:48;;;;;;;7.38;1.98;;;8.20;99.90;;;;;;4995495;28;20049;-65
2023/11/07 07:29:17;;;;;;;16.30;2.83;;;8.20;99.90;;;;;;5008854;28;20096;-65
2023/11/07 07:31:43;;;;;;;4.25;2.70;;;8.20;99.90;;;;;;5008321;28;20053;-65
2023/11/07 07:34:09;;;;;;;6.82;2.53;;;8.30;99.90;;;;;;5006304;28;20092;-65
2023/11/07 07:36:43;;;;;;;8.40;2.70;;;8.30;99.90;;;;;;4999271;28;20038;-65
2023/11/07 07:39:32;;;;;;;6.40;2.20;;;8.30;99.90;;;;;;5006622;28;20046;-65
2023/11/07 07:42:00;;;;;;;9.88;2.63;;;8.40;99.90;;;;;;5007920;28;20042;-65
2023/11/07 07:44:27;;;;;;;4.72;2.80;;;8.40;99.90;;;;;;5008647;28;20046;-65
2023/11/07 07:47:00;;;;;;;10.38;2.80;;;8.50;99.90;;;;;;4998401;28;20388;-65
2023/11/07 07:49:26;;;;;;;7.90;2.15;;;8.50;99.90;;;;;;5006262;28;20336;-65
2023/11/07 07:52:11;;;;;;;7.35;2.25;;;8.60;99.90;;;;;;5007837;28;20045;-65
2023/11/07 07:54:37;;;;;;;7.63;2.90;;;8.70;99.90;;;;;;5000602;28;20046;-65
2023/11/07 07:57:08;;;;;;;11.52;2.88;;;8.60;99.90;;;;;;5004546;28;20489;-65
2023/11/07 07:59:35;;;;;;;4.13;2.30;;;8.80;99.90;;;;;;5006952;28;20064;-66
2023/11/07 08:02:01;;;;;;;8.32;2.72;;;8.70;99.90;;;;;;5006631;28;20046;-65
2023/11/07 08:04:31;;;;;;;5.18;2.35;;;8.80;99.90;;;;;;5005625;28;20045;-65
2023/11/07 08:06:57;;;;;;;8.40;2.88;;;8.70;99.90;;;;;;5005436;28;20042;-65
2023/11/07 08:09:24;;;;;;;4.30;2.47;;;8.70;99.90;;;;;;5004513;28;20045;-66
2023/11/07 08:11:53;;;;;;;7.85;2.50;;;8.60;99.90;;;;;;5001137;28;20039;-66
2023/11/07 08:14:19;;;;;;;12.60;3.15;;;8.70;99.90;;;;;;4990266;28;20531;-65
2023/11/07 08:16:45;;;;;;;4.05;2.45;;;8.60;99.90;;;;;;5008441;28;20616;-65
2023/11/07 08:19:12;;;;;;;3.75;1.65;;;8.60;99.90;;;;;;4999901;28;20045;-65
2023/11/07 08:21:38;;;;;;;7.75;2.30;;;8.70;99.90;;;;;;5006118;28;20048;-65
2023/11/07 08:24:05;;;;;;;8.45;2.78;;;8.70;99.90;;;;;;5006915;28;20109;-65
2023/11/07 08:26:33;;;;;;;4.82;2.65;;;8.80;99.90;;;;;;5004511;28;20042;-65
2023/11/07 08:29:00;;;;;;;4.38;2.15;;;8.90;99.90;;;;;;4993225;28;20048;-65
2023/11/07 08:31:26;;;;;;;8.32;2.25;;;8.90;99.90;;;;;;5007486;28;20076;-65
2023/11/07 08:33:52;;;;;;;6.97;2.58;;;9.00;99.90;;;;;;5007017;28;20034;-65
2023/11/07 08:36:19;;;;;;;8.95;2.13;;;9.10;99.90;;;;;;5005873;28;20389;-65
2023/11/07 08:38:47;;;;;;;7.38;2.53;;;9.20;99.90;;;;;;5006644;28;20045;-65
2023/11/07 08:41:13;;;;;;;7.40;2.33;;;9.20;99.90;;;;;;5006425;28;20077;-65
2023/11/07 08:43:38;;;;;;;7.57;2.90;;;9.30;99.90;;;;;;4997155;28;20081;-65
2023/11/07 08:46:05;;;;;;;5.88;2.80;;;9.30;99.90;;;;;;5003767;28;20061;-65
2023/11/07 08:48:31;;;;;;;6.30;2.17;;;9.40;99.90;;;;;;5006917;28;20412;-65
2023/11/07 08:50:57;;;;;;;4.93;1.90;;;9.50;99.90;;;;;;5006802;28;20053;-65
2023/11/07 08:53:22;;;;;;;5.75;2.60;;;9.60;99.90;;;;;;5005693;28;20058;-65
2023/11/07 08:55:50;;;;;;;5.00;2.08;;;9.70;99.90;;;;;;5005317;28;20038;-64
2023/11/07 08:58:19;;;;;;;7.30;2.15;;;9.80;99.90;;;;;;5005276;28;20440;-65
2023/11/07 09:00:45;;;;;;;5.22;2.42;;;9.80;99.90;;;;;;5005842;28;20115;-65
2023/11/07 09:03:11;;;;;;;8.82;2.80;;;10.00;99.90;;;;;;4999979;28;20054;-65
2023/11/07 09:05:40;;;;;;;7.45;2.30;;;10.00;99.90;;;;;;5006445;28;20050;-65
2023/11/07 09:08:06;;;;;;;5.65;2.10;;;10.00;99.90;;;;;;5006992;28;20117;-65
2023/11/07 09:10:32;;;;;;;3.85;2.38;;;10.00;99.90;;;;;;5009197;28;20129;-65
2023/11/07 09:12:58;;;;;;;9.43;2.40;;;10.10;99.90;;;;;;5009086;28;20057;-65
2023/11/07 09:15:25;;;;;;;2.67;2.08;;;10.10;99.90;;;;;;5009283;28;20828;-65
2023/11/07 09:17:51;;;;;;;8.63;2.50;;;10.00;99.90;;;;;;5010055;28;20120;-65
2023/11/07 09:20:18;;;;;;;6.75;2.53;;;9.90;99.90;;;;;;5010051;28;20061;-65
2023/11/07 09:22:46;;;;;;;3.78;1.77;;;9.90;99.90;;;;;;5005213;28;20034;-65
2023/11/07 09:25:12;;;;;;;10.20;2.35;;;9.90;99.90;;;;;;5008520;28;20554;-65
2023/11/07 09:27:38;;;;;;;4.00;2.40;;;9.90;99.90;;;;;;5008334;28;20048;-65
2023/11/07 09:30:09;;;;;;;4.97;2.40;;;9.90;99.90;;;;;;5009555;28;20551;-65
2023/11/07 09:32:44;;;;;;;2.97;1.95;;;9.90;99.90;;;;;;5009903;28;20049;-65
2023/11/07 09:35:11;;;;;;;2.92;2.40;;;9.90;99.90;;;;;;5024010;28;20046;-65
2023/11/07 09:37:39;;;;;;;4.80;2.30;;;9.90;99.90;;;;;;5007221;28;20048;-65
2023/11/07 09:40:12;;;;;;;5.30;2.10;;;9.90;99.90;;;;;;5005718;28;20622;-65
2023/11/07 09:42:44;;;;;;;2.55;2.05;;;9.90;99.90;;;;;;5010319;28;20041;-65
2023/11/07 09:45:14;;;;;;;12.60;2.58;;;10.00;99.90;;;;;;5007401;28;20046;-65
2023/11/07 09:47:45;;;;;;;4.20;2.20;;;10.00;99.90;;;;;;5009433;28;20053;-65
2023/11/07 09:50:12;;;;;;;4.93;1.95;;;10.00;99.90;;;;;;5006894;28;20068;-65
2023/11/07 09:52:39;;;;;;;7.13;2.60;;;10.20;99.90;;;;;;5008511;28;20171;-65
2023/11/07 09:55:10;;;;;;;4.00;2.13;;;10.30;99.90;;;;;;4991188;28;20492;-64
2023/11/07 09:57:40;;;;;;;1.77;0.75;;;10.30;99.90;;;;;;4998993;28;20049;-64
2023/11/07 10:00:09;;;;;;;1.83;1.67;;;10.30;99.90;;;;;;5009428;28;20527;-65
2023/11/07 10:02:36;;;;;;;5.82;2.35;;;10.30;99.90;;;;;;5009315;28;20037;-64
2023/11/07 10:05:05;;;;;;;4.00;2.22;;;10.30;99.90;;;;;;5009907;28;20046;-64
2023/11/07 10:07:30;;;;;;;3.90;2.17;;;10.30;99.90;;;;;;5009365;28;20048;-64
2023/11/07 10:09:57;;;;;;;6.47;2.40;;;10.30;99.90;;;;;;5002849;28;20034;-65
2023/11/07 10:12:23;;;;;;;5.28;1.98;;;10.30;99.90;;;;;;4991461;28;20508;-64
2023/11/07 10:14:49;;;;;;;3.30;1.48;;;10.30;99.90;;;;;;5008499;28;20056;-64
2023/11/07 10:17:22;;;;;;;5.00;2.22;;;10.30;99.90;;;;;;5009276;28;20167;-64
2023/11/07 10:20:11;;;;;;;2.80;1.48;;;10.40;99.90;;;;;;5007430;28;20045;-64
2023/11/07 10:22:46;;;;;;;3.92;1.80;;;10.50;99.90;;;;;;5006681;28;20428;-64
2023/11/07 10:25:29;;;;;;;3.35;1.67;;;10.60;99.90;;;;;;5008003;28;20092;-64
2023/11/07 10:28:03;;;;;;;4.47;2.65;;;10.70;99.90;;;;;;5006860;28;20061;-64
2023/11/07 10:30:46;;;;;;;4.30;2.70;;;10.80;99.90;;;;;;5007912;28;20057;-64
2023/11/07 10:33:32;;;;;;;4.40;2.05;;;11.00;99.90;;;;;;4999108;28;20045;-64
2023/11/07 10:36:01;;;;;;;6.28;2.53;;;11.00;99.90;;;;;;5009620;28;20037;-64
2023/11/07 10:38:31;;;;;;;2.05;1.50;;;11.10;99.90;;;;;;5006833;28;20061;-64
2023/11/07 10:40:58;;;;;;;4.97;1.63;;;11.10;99.90;;;;;;5008116;28;20053;-64
2023/11/07 10:43:37;;;;;;;2.47;1.48;;;11.10;99.90;;;;;;5003051;28;20972;-64
2023/11/07 10:46:08;;;;;;;3.92;2.15;;;11.20;99.90;;;;;;5009485;28;20440;-64
2023/11/07 10:48:39;;;;;;;11.70;3.00;;;11.20;99.90;;;;;;5008514;28;20259;-64
2023/11/07 10:51:08;;;;;;;1.48;1.38;;;11.30;99.90;;;;;;5008975;28;20042;-64
2023/11/07 10:53:36;;;;;;;3.22;2.83;;;11.30;99.90;;;;;;4989436;28;20034;-64
2023/11/07 10:56:14;;;;;;;3.92;1.70;;;11.40;99.90;;;;;;5008948;28;20608;-64
2023/11/07 10:58:45;;;;;;;1.55;1.50;;;11.30;99.90;;;;;;5007721;28;20046;-64
2023/11/07 11:01:12;;;;;;;6.43;2.67;;;11.30;99.90;;;;;;4991228;28;20057;-64
2023/11/07 11:03:39;;;;;;;1.92;1.83;;;11.30;99.90;;;;;;5006115;28;20042;-64
2023/11/07 11:06:07;;;;;;;2.22;1.98;;;11.40;99.90;;;;;;5008643;28;20052;-64
2023/11/07 11:08:34;;;;;;;4.13;2.88;;;11.40;99.90;;;;;;4996168;28;20561;-64
2023/11/07 11:11:03;;;;;;;3.65;2.45;;;11.50;99.90;;;;;;5009143;28;20037;-64
2023/11/07 11:13:31;;;;;;;4.13;2.03;;;11.50;99.90;;;;;;5006881;28;20437;-64
2023/11/07 11:15:58;;;;;;;7.53;3.10;;;11.60;99.90;;;;;;5005962;28;20042;-64
2023/11/07 11:18:34;;;;;;;4.97;2.72;;;11.50;99.90;;;;;;5007342;28;20073;-65
2023/11/07 11:21:16;;;;;;;3.10;2.40;;;11.50;99.90;;;;;;5004909;28;20487;-64
2023/11/07 11:24:18;;;;;;;3.42;1.98;;;11.50;99.90;;;;;;5008101;28;20436;-64
2023/11/07 11:26:58;;;;;;;2.33;2.13;;;11.50;99.90;;;;;;5007120;28;20439;-64
2023/11/07 11:29:28;;;;;;;5.72;2.97;;;11.40;99.90;;;;;;5007332;28;20050;-64
2023/11/07 11:31:55;;;;;;;;;;;11.50;99.90;;;;;;5007888;28;20050;-65
2023/11/07 11:34:29;;;;;;;6.45;2.55;;;11.40;99.90;;;;;;5008003;28;19925;-64
2023/11/07 11:37:01;;;;;;;3.80;2.20;;;11.40;99.90;;;;;;5004026;28;20049;-64
2023/11/07 11:39:30;;;;;;;6.75;2.90;;;11.30;99.90;;;;;;5007597;28;20416;-64
2023/11/07 11:41:57;;;;;;;4.07;2.08;;;11.30;99.90;;;;;;4990114;28;20554;-64
2023/11/07 11:44:26;;;;;;;5.47;2.17;;;11.40;99.90;;;;;;5006012;28;20053;-64
2023/11/07 11:46:55;;;;;;;5.35;2.40;;;11.40;99.90;;;;;;5004352;28;20496;-64
2023/11/07 11:49:23;;;;;;;3.07;1.53;;;11.50;99.90;;;;;;5007551;28;20115;-64
2023/11/07 11:54:27;;;;;;;6.20;1.80;;;11.70;99.90;;;;;;5043989;28;20052;-64
2023/11/07 11:56:55;;;;;;;4.38;2.00;;;12.00;99.90;;;;;;5034135;28;20541;-64
2023/11/07 11:59:27;;;;;;;2.70;1.85;;;12.10;99.90;;;;;;5040230;28;20045;-64
2023/11/07 12:01:54;;;;;;;2.38;1.90;;;12.30;99.90;;;;;;5036733;28;20510;-64
2023/11/07 12:04:27;;;;;;;5.90;1.70;;;12.30;99.90;;;;;;5040137;28;20331;-64
2023/11/07 12:07:09;;;;;;;3.33;1.45;;;12.30;99.90;;;;;;5038320;28;20042;-64
2023/11/07 12:09:35;;;;;;;4.95;1.95;;;12.20;99.90;;;;;;5019585;28;20171;-63
2023/11/07 12:12:02;;;;;;;2.97;1.65;;;12.10;99.90;;;;;;5020125;28;20044;-64
2023/11/07 12:14:32;;;;;;;3.85;1.65;;;12.20;99.90;;;;;;5030632;28;20360;-64
2023/11/07 12:16:59;;;;;;;8.60;1.98;;;12.20;99.90;;;;;;5026793;28;20116;-64
2023/11/07 12:19:29;;;;;;;3.13;1.58;;;12.10;99.90;;;;;;5028940;28;20049;-64
2023/11/07 12:21:57;;;;;;;3.88;1.50;;;12.00;99.90;;;;;;5027709;28;20045;-63
2023/11/07 12:24:24;;;;;;;7.78;1.73;;;12.00;99.90;;;;;;5029233;28;20046;-64
2023/11/07 12:26:51;;;;;;;3.40;1.42;;;11.90;99.90;;;;;;5010624;28;20080;-64
2023/11/07 12:29:33;;;;;;;5.43;1.92;;;11.70;99.90;;;;;;5024225;28;20042;-63
2023/11/07 12:31:59;;;;;;;1.48;1.30;;;11.70;99.90;;;;;;5017870;28;20509;-63
2023/11/07 12:34:35;;;;;;;1.55;1.45;;;11.60;99.90;;;;;;5026531;28;20053;-64
2023/11/07 12:37:09;;;;;;;8.88;2.15;;;11.60;99.90;;;;;;5028811;28;20534;-63
2023/11/07 12:39:36;;;;;;;10.90;1.90;;;11.60;99.90;;;;;;5017703;28;20396;-63
2023/11/07 12:42:02;;;;;;;2.97;1.50;;;11.50;99.90;;;;;;5028439;28;20124;-64
2023/11/07 12:44:29;;;;;;;3.38;1.65;;;11.40;99.90;;;;;;5028605;28;20049;-64
2023/11/07 12:46:56;;;;;;;4.60;1.60;;;11.30;99.90;;;;;;5028016;28;20073;-64
2023/11/07 12:49:23;;;;;;;5.13;1.85;;;11.20;99.90;;;;;;5022375;28;20876;-64
2023/11/07 12:51:49;;;;;;;2.85;1.67;;;11.20;99.90;;;;;;5006221;28;20125;-63
2023/11/07 12:54:16;;;;;;;6.93;1.80;;;11.20;99.90;;;;;;5010791;28;20529;-64
2023/11/07 12:56:45;;;;;;;4.13;1.70;;;11.10;99.90;;;;;;4992830;28;20132;-64
2023/11/07 12:59:13;;;;;;;2.70;1.50;;;11.20;99.90;;;;;;5008772;28;20081;-63